createdAt,value
2019-03-22T00:00:53.491Z,9.59
2019-03-22T00:01:53.475Z,9.59
2019-03-22T00:02:53.453Z,9.59
2019-03-22T00:03:53.457Z,9.72
2019-03-22T00:04:53.431Z,9.66
2019-03-22T00:05:53.419Z,9.77
2019-03-22T00:06:53.416Z,9.74
2019-03-22T00:07:53.404Z,9.72
2019-03-22T00:08:53.413Z,9.65
2019-03-22T00:09:53.375Z,9.59
2019-03-22T00:10:53.370Z,9.47
2019-03-22T00:11:53.354Z,9.48
2019-03-22T00:12:53.355Z,9.46
2019-03-22T00:13:53.337Z,9.41
2019-03-22T00:14:53.337Z,9.40
2019-03-22T00:15:53.314Z,9.47
2019-03-22T00:16:53.298Z,9.43
2019-03-22T00:17:53.289Z,9.47
2019-03-22T00:18:53.288Z,9.47
2019-03-22T00:19:53.267Z,9.47
2019-03-22T00:20:53.271Z,9.48
2019-03-22T00:21:53.247Z,9.44
2019-03-22T00:22:53.240Z,9.36
2019-03-22T00:23:53.222Z,9.39
2019-03-22T00:24:53.220Z,9.34
2019-03-22T00:25:53.209Z,9.36
2019-03-22T00:26:53.203Z,9.46
2019-03-22T00:27:53.180Z,9.50
2019-03-22T00:28:53.172Z,9.56
2019-03-22T00:29:53.160Z,9.51
2019-03-22T00:30:53.153Z,9.54
2019-03-22T00:31:53.135Z,9.58
2019-03-22T00:32:54.177Z,9.59
2019-03-22T00:33:53.118Z,9.58
2019-03-22T00:34:53.121Z,9.51
2019-03-22T00:35:53.104Z,9.58
2019-03-22T00:36:53.079Z,9.43
2019-03-22T00:37:53.080Z,9.46
2019-03-22T00:38:53.074Z,9.47
2019-03-22T00:39:53.049Z,9.41
2019-03-22T00:40:53.047Z,9.43
2019-03-22T00:41:53.025Z,9.41
2019-03-22T00:42:53.014Z,9.41
2019-03-22T00:43:53.008Z,9.40
2019-03-22T00:44:53.004Z,9.37
2019-03-22T00:45:52.993Z,9.43
2019-03-22T00:46:52.979Z,9.41
2019-03-22T00:47:52.959Z,9.43
2019-03-22T00:48:52.950Z,9.37
2019-03-22T00:49:52.937Z,9.31
2019-03-22T00:50:52.938Z,9.34
2019-03-22T00:51:52.915Z,9.29
2019-03-22T00:52:52.915Z,9.34
2019-03-22T00:53:52.893Z,9.25
2019-03-22T00:54:52.882Z,9.31
2019-03-22T00:55:52.893Z,9.40
2019-03-22T00:56:52.859Z,9.48
2019-03-22T00:57:52.850Z,9.47
2019-03-22T00:58:52.856Z,9.50
2019-03-22T00:59:52.831Z,9.47
2019-03-22T01:00:52.821Z,9.41
2019-03-22T01:01:52.819Z,9.46
2019-03-22T01:02:52.796Z,9.48
2019-03-22T01:03:52.842Z,9.43
2019-03-22T01:04:52.782Z,9.47
2019-03-22T01:05:52.770Z,9.46
2019-03-22T01:06:52.767Z,9.43
2019-03-22T01:07:52.742Z,9.31
2019-03-22T01:08:52.728Z,9.26
2019-03-22T01:09:52.719Z,9.28
2019-03-22T01:10:52.706Z,9.32
2019-03-22T01:11:52.715Z,9.25
2019-03-22T01:12:52.698Z,9.26
2019-03-22T01:13:52.676Z,9.31
2019-03-22T01:14:52.667Z,9.26
2019-03-22T01:15:52.655Z,9.28
2019-03-22T01:16:52.642Z,9.29
2019-03-22T01:17:52.646Z,9.23
2019-03-22T01:18:52.621Z,9.22
2019-03-22T01:19:52.608Z,9.18
2019-03-22T01:20:52.610Z,9.14
2019-03-22T01:21:52.588Z,9.03
2019-03-22T01:22:52.575Z,9.10
2019-03-22T01:23:52.588Z,9.10
2019-03-22T01:24:52.555Z,8.95
2019-03-22T01:25:52.540Z,8.89
2019-03-22T01:26:52.533Z,8.97
2019-03-22T01:27:52.518Z,8.82
2019-03-22T01:28:52.528Z,8.87
2019-03-22T01:29:52.517Z,8.89
2019-03-22T01:30:52.485Z,8.73
2019-03-22T01:31:52.475Z,8.79
2019-03-22T01:33:01.072Z,8.79
2019-03-22T01:33:52.454Z,8.79
2019-03-22T01:34:52.458Z,8.81
2019-03-22T01:35:52.440Z,8.78
2019-03-22T01:36:52.421Z,8.79
2019-03-22T01:37:52.411Z,8.79
2019-03-22T01:38:52.401Z,8.73
2019-03-22T01:39:52.415Z,8.74
2019-03-22T01:40:52.391Z,8.76
2019-03-22T01:41:52.365Z,8.70
2019-03-22T01:42:52.358Z,8.69
2019-03-22T01:43:52.342Z,8.70
2019-03-22T01:44:52.341Z,8.70
2019-03-22T01:45:52.339Z,8.66
2019-03-22T01:46:52.314Z,8.63
2019-03-22T01:47:52.301Z,8.63
2019-03-22T01:48:52.288Z,8.63
2019-03-22T01:49:52.276Z,8.60
2019-03-22T01:50:52.275Z,8.61
2019-03-22T01:51:52.265Z,8.60
2019-03-22T01:52:52.246Z,8.56
2019-03-22T01:53:52.236Z,8.56
2019-03-22T01:54:52.221Z,8.55
2019-03-22T01:55:52.230Z,8.49
2019-03-22T01:56:52.217Z,8.49
2019-03-22T01:57:53.852Z,8.44
2019-03-22T01:58:52.181Z,8.30
2019-03-22T01:59:52.167Z,8.34
2019-03-22T02:00:52.159Z,8.42
2019-03-22T02:01:52.165Z,8.37
2019-03-22T02:02:52.154Z,8.37
2019-03-22T02:03:52.123Z,8.37
2019-03-22T02:04:52.111Z,8.42
2019-03-22T02:05:52.104Z,8.46
2019-03-22T02:06:52.090Z,8.48
2019-03-22T02:07:52.094Z,8.42
2019-03-22T02:08:52.084Z,8.41
2019-03-22T02:09:52.059Z,8.48
2019-03-22T02:10:52.047Z,8.46
2019-03-22T02:11:52.037Z,8.42
2019-03-22T02:12:52.038Z,8.42
2019-03-22T02:13:52.024Z,8.44
2019-03-22T02:14:52.014Z,8.45
2019-03-22T02:15:51.993Z,8.48
2019-03-22T02:16:51.984Z,8.48
2019-03-22T02:17:51.968Z,8.44
2019-03-22T02:18:51.996Z,8.38
2019-03-22T02:19:51.948Z,8.45
2019-03-22T02:20:51.951Z,8.37
2019-03-22T02:21:51.927Z,8.44
2019-03-22T02:22:51.914Z,8.49
2019-03-22T02:23:52.262Z,8.44
2019-03-22T02:24:51.908Z,8.38
2019-03-22T02:25:51.881Z,8.44
2019-03-22T02:26:51.879Z,8.44
2019-03-22T02:28:03.450Z,8.44
2019-03-22T02:28:52.853Z,8.44
2019-03-22T02:29:51.838Z,8.49
2019-03-22T02:30:51.843Z,8.56
2019-03-22T02:31:51.819Z,8.52
2019-03-22T02:32:51.807Z,8.51
2019-03-22T02:33:51.809Z,8.48
2019-03-22T02:34:51.785Z,8.46
2019-03-22T02:35:51.777Z,8.46
2019-03-22T02:36:51.784Z,8.46
2019-03-22T02:37:51.757Z,8.44
2019-03-22T02:38:51.742Z,8.44
2019-03-22T02:39:51.748Z,8.46
2019-03-22T02:40:51.718Z,8.46
2019-03-22T02:41:51.738Z,8.51
2019-03-22T02:42:51.700Z,8.51
2019-03-22T02:43:54.617Z,8.48
2019-03-22T02:44:51.676Z,8.44
2019-03-22T02:45:51.692Z,8.51
2019-03-22T02:46:51.652Z,8.44
2019-03-22T02:47:51.651Z,8.44
2019-03-22T02:48:51.628Z,8.52
2019-03-22T02:49:51.617Z,8.48
2019-03-22T02:50:51.612Z,8.46
2019-03-22T02:51:51.610Z,8.44
2019-03-22T02:52:51.605Z,8.46
2019-03-22T02:53:51.571Z,8.48
2019-03-22T02:54:51.579Z,8.46
2019-03-22T02:55:51.715Z,8.42
2019-03-22T02:56:51.540Z,8.45
2019-03-22T02:57:51.567Z,8.36
2019-03-22T02:58:51.563Z,8.33
2019-03-22T02:59:51.515Z,8.38
2019-03-22T03:00:51.534Z,8.37
2019-03-22T03:01:51.550Z,8.42
2019-03-22T03:02:51.482Z,8.46
2019-03-22T03:03:51.493Z,8.46
2019-03-22T03:04:51.463Z,8.49
2019-03-22T03:05:51.473Z,8.56
2019-03-22T03:06:51.443Z,8.49
2019-03-22T03:07:51.432Z,8.48
2019-03-22T03:08:51.408Z,8.51
2019-03-22T03:09:51.422Z,8.52
2019-03-22T03:10:51.385Z,8.45
2019-03-22T03:11:51.389Z,8.49
2019-03-22T03:12:51.366Z,8.56
2019-03-22T03:13:51.351Z,8.51
2019-03-22T03:14:51.363Z,8.58
2019-03-22T03:15:51.395Z,8.55
2019-03-22T03:16:51.321Z,8.56
2019-03-22T03:17:51.330Z,8.55
2019-03-22T03:18:51.298Z,8.61
2019-03-22T03:19:51.301Z,8.60
2019-03-22T03:20:51.303Z,8.49
2019-03-22T03:21:51.272Z,8.51
2019-03-22T03:22:51.267Z,8.44
2019-03-22T03:23:51.244Z,8.44
2019-03-22T03:24:51.233Z,8.45
2019-03-22T03:25:51.224Z,8.42
2019-03-22T03:26:51.227Z,8.44
2019-03-22T03:27:51.199Z,8.41
2019-03-22T03:28:51.194Z,8.44
2019-03-22T03:29:51.171Z,8.46
2019-03-22T03:30:51.197Z,8.42
2019-03-22T03:31:51.157Z,8.49
2019-03-22T03:32:51.199Z,8.51
2019-03-22T03:33:51.357Z,8.48
2019-03-22T03:34:51.118Z,8.46
2019-03-22T03:35:51.133Z,8.48
2019-03-22T03:36:51.098Z,8.41
2019-03-22T03:37:51.087Z,8.44
2019-03-22T03:38:51.088Z,8.45
2019-03-22T03:39:51.075Z,8.44
2019-03-22T03:40:51.053Z,8.46
2019-03-22T03:41:51.040Z,8.31
2019-03-22T03:42:51.042Z,8.38
2019-03-22T03:43:51.022Z,8.36
2019-03-22T03:44:51.023Z,8.27
2019-03-22T03:45:51.027Z,8.26
2019-03-22T03:46:50.990Z,8.28
2019-03-22T03:47:50.977Z,8.24
2019-03-22T03:48:50.967Z,8.23
2019-03-22T03:49:50.953Z,8.27
2019-03-22T03:50:50.962Z,8.27
2019-03-22T03:51:50.941Z,8.23
2019-03-22T03:52:50.920Z,8.19
2019-03-22T03:53:50.915Z,8.31
2019-03-22T03:54:50.911Z,8.26
2019-03-22T03:55:50.883Z,8.31
2019-03-22T03:56:50.905Z,8.26
2019-03-22T03:57:50.940Z,8.30
2019-03-22T03:58:52.733Z,8.31
2019-03-22T03:59:50.878Z,8.34
2019-03-22T04:00:50.844Z,8.23
2019-03-22T04:01:50.820Z,8.20
2019-03-22T04:02:50.862Z,8.24
2019-03-22T04:03:50.797Z,8.19
2019-03-22T04:04:50.791Z,8.26
2019-03-22T04:05:50.779Z,8.26
2019-03-22T04:06:50.761Z,8.20
2019-03-22T04:07:50.757Z,8.19
2019-03-22T04:08:50.796Z,8.12
2019-03-22T04:09:50.731Z,8.03
2019-03-22T04:10:50.720Z,8.06
2019-03-22T04:11:50.708Z,8.01
2019-03-22T04:12:50.700Z,8.09
2019-03-22T04:13:50.688Z,8.16
2019-03-22T04:14:50.709Z,8.18
2019-03-22T04:15:50.665Z,8.15
2019-03-22T04:16:50.655Z,8.16
2019-03-22T04:17:50.646Z,8.20
2019-03-22T04:18:50.630Z,8.23
2019-03-22T04:19:50.638Z,8.19
2019-03-22T04:20:50.637Z,8.15
2019-03-22T04:21:50.594Z,8.16
2019-03-22T04:22:50.595Z,8.08
2019-03-22T04:23:50.587Z,8.08
2019-03-22T04:24:50.565Z,8.09
2019-03-22T04:25:50.574Z,8.05
2019-03-22T04:26:50.551Z,8.08
2019-03-22T04:27:50.549Z,8.00
2019-03-22T04:28:50.531Z,8.01
2019-03-22T04:29:50.508Z,8.06
2019-03-22T04:30:50.495Z,7.98
2019-03-22T04:31:50.498Z,7.98
2019-03-22T04:32:50.490Z,7.88
2019-03-22T04:33:50.476Z,7.98
2019-03-22T04:34:50.454Z,8.05
2019-03-22T04:35:50.442Z,7.91
2019-03-22T04:36:50.430Z,7.97
2019-03-22T04:37:50.429Z,7.91
2019-03-22T04:38:50.411Z,7.85
2019-03-22T04:39:50.415Z,7.83
2019-03-22T04:40:50.390Z,7.82
2019-03-22T04:41:50.375Z,7.80
2019-03-22T04:42:50.385Z,7.82
2019-03-22T04:43:50.353Z,7.77
2019-03-22T04:44:50.344Z,7.79
2019-03-22T04:45:50.350Z,7.67
2019-03-22T04:46:50.318Z,7.79
2019-03-22T04:47:50.311Z,7.67
2019-03-22T04:48:50.316Z,7.76
2019-03-22T04:49:50.286Z,7.67
2019-03-22T04:50:50.277Z,7.67
2019-03-22T04:51:50.268Z,7.79
2019-03-22T04:52:50.265Z,7.77
2019-03-22T04:53:50.252Z,7.76
2019-03-22T04:54:50.228Z,7.80
2019-03-22T04:55:50.222Z,7.82
2019-03-22T04:56:50.206Z,7.70
2019-03-22T04:57:50.196Z,7.77
2019-03-22T04:58:50.213Z,7.63
2019-03-22T04:59:50.175Z,7.69
2019-03-22T05:00:50.164Z,7.66
2019-03-22T05:01:50.150Z,7.60
2019-03-22T05:02:50.145Z,7.58
2019-03-22T05:03:50.156Z,7.58
2019-03-22T05:04:50.130Z,7.56
2019-03-22T05:05:50.106Z,7.57
2019-03-22T05:06:50.121Z,7.58
2019-03-22T05:07:50.091Z,7.67
2019-03-22T05:08:50.077Z,7.66
2019-03-22T05:09:50.075Z,7.57
2019-03-22T05:10:50.067Z,7.67
2019-03-22T05:11:50.045Z,7.72
2019-03-22T05:12:50.030Z,7.58
2019-03-22T05:13:50.021Z,7.47
2019-03-22T05:14:50.011Z,7.61
2019-03-22T05:15:50.000Z,7.60
2019-03-22T05:16:50.004Z,7.56
2019-03-22T05:17:49.990Z,7.53
2019-03-22T05:18:49.964Z,7.63
2019-03-22T05:19:49.952Z,7.66
2019-03-22T05:20:49.975Z,7.58
2019-03-22T05:21:49.932Z,7.60
2019-03-22T05:22:49.921Z,7.69
2019-03-22T05:23:49.908Z,7.56
2019-03-22T05:24:49.914Z,7.51
2019-03-22T05:25:49.886Z,7.61
2019-03-22T05:26:49.887Z,7.57
2019-03-22T05:27:49.865Z,7.61
2019-03-22T05:28:49.851Z,7.50
2019-03-22T05:29:49.841Z,7.51
2019-03-22T05:30:49.838Z,7.47
2019-03-22T05:31:49.833Z,7.51
2019-03-22T05:32:49.807Z,7.45
2019-03-22T05:33:49.803Z,7.43
2019-03-22T05:34:49.786Z,7.39
2019-03-22T05:35:49.775Z,7.43
2019-03-22T05:36:49.799Z,7.42
2019-03-22T05:37:49.753Z,7.42
2019-03-22T05:38:49.746Z,7.48
2019-03-22T05:39:49.732Z,7.33
2019-03-22T05:40:49.721Z,7.29
2019-03-22T05:41:49.707Z,7.40
2019-03-22T05:42:49.728Z,7.38
2019-03-22T05:43:49.687Z,7.43
2019-03-22T05:44:49.678Z,7.40
2019-03-22T05:45:49.663Z,7.40
2019-03-22T05:46:49.655Z,7.32
2019-03-22T05:47:49.641Z,7.33
2019-03-22T05:48:49.660Z,7.36
2019-03-22T05:49:49.619Z,7.42
2019-03-22T05:50:49.612Z,7.45
2019-03-22T05:51:49.600Z,7.45
2019-03-22T05:52:49.587Z,7.35
2019-03-22T05:53:49.587Z,7.40
2019-03-22T05:54:49.581Z,7.38
2019-03-22T05:55:49.572Z,7.29
2019-03-22T05:56:49.543Z,7.35
2019-03-22T05:57:49.531Z,7.33
2019-03-22T05:58:49.534Z,7.28
2019-03-22T05:59:49.508Z,7.29
2019-03-22T06:00:49.498Z,7.36
2019-03-22T06:01:49.530Z,7.35
2019-03-22T06:02:49.477Z,7.40
2019-03-22T06:03:49.463Z,7.40
2019-03-22T06:04:49.467Z,7.33
2019-03-22T06:05:49.444Z,7.32
2019-03-22T06:06:49.431Z,7.31
2019-03-22T06:07:49.428Z,7.33
2019-03-22T06:08:49.410Z,7.33
2019-03-22T06:09:49.413Z,7.29
2019-03-22T06:10:49.390Z,7.35
2019-03-22T06:11:49.373Z,7.40
2019-03-22T06:12:49.367Z,7.42
2019-03-22T06:13:49.369Z,7.50
2019-03-22T06:14:49.342Z,7.48
2019-03-22T06:15:49.347Z,7.47
2019-03-22T06:16:49.329Z,7.35
2019-03-22T06:17:51.994Z,7.39
2019-03-22T06:18:50.478Z,7.39
2019-03-22T06:19:49.299Z,7.36
2019-03-22T06:20:49.275Z,7.39
2019-03-22T06:21:49.275Z,7.32
2019-03-22T06:22:49.256Z,7.29
2019-03-22T06:23:49.245Z,7.32
2019-03-22T06:24:49.233Z,7.29
2019-03-22T06:25:49.226Z,7.39
2019-03-22T06:26:49.219Z,7.38
2019-03-22T06:27:49.199Z,7.36
2019-03-22T06:28:49.186Z,7.33
2019-03-22T06:29:54.059Z,7.28
2019-03-22T06:30:50.165Z,7.35
2019-03-22T06:31:49.189Z,7.23
2019-03-22T06:32:49.144Z,7.25
2019-03-22T06:33:49.132Z,7.28
2019-03-22T06:34:49.122Z,7.40
2019-03-22T06:35:49.109Z,7.31
2019-03-22T06:36:49.099Z,7.28
2019-03-22T06:37:49.101Z,7.28
2019-03-22T06:38:49.082Z,7.31
2019-03-22T06:39:49.080Z,7.39
2019-03-22T06:40:49.055Z,7.35
2019-03-22T06:41:49.043Z,7.33
2019-03-22T06:42:49.033Z,7.32
2019-03-22T06:43:49.021Z,7.33
2019-03-22T06:44:49.026Z,7.25
2019-03-22T06:45:49.009Z,7.29
2019-03-22T06:46:48.985Z,7.35
2019-03-22T06:47:48.976Z,7.24
2019-03-22T06:48:48.969Z,7.35
2019-03-22T06:49:48.954Z,7.43
2019-03-22T06:50:48.965Z,7.39
2019-03-22T06:51:48.945Z,7.33
2019-03-22T06:52:48.925Z,7.33
2019-03-22T06:53:48.912Z,7.36
2019-03-22T06:54:48.897Z,7.45
2019-03-22T06:55:48.886Z,7.39
2019-03-22T06:56:48.924Z,7.51
2019-03-22T06:57:48.869Z,7.51
2019-03-22T06:58:48.859Z,7.42
2019-03-22T06:59:48.841Z,7.56
2019-03-22T07:00:48.831Z,7.60
2019-03-22T07:01:48.829Z,7.60
2019-03-22T07:02:48.844Z,7.58
2019-03-22T07:03:48.801Z,7.53
2019-03-22T07:04:48.791Z,7.50
2019-03-22T07:05:48.778Z,7.50
2019-03-22T07:06:48.767Z,7.39
2019-03-22T07:07:48.753Z,7.43
2019-03-22T07:08:48.770Z,7.39
2019-03-22T07:09:48.735Z,7.53
2019-03-22T07:10:48.725Z,7.35
2019-03-22T07:11:48.711Z,7.28
2019-03-22T07:12:48.704Z,7.32
2019-03-22T07:13:48.706Z,7.35
2019-03-22T07:14:48.704Z,7.38
2019-03-22T07:15:48.666Z,7.32
2019-03-22T07:16:48.653Z,7.35
2019-03-22T07:17:48.651Z,7.53
2019-03-22T07:18:48.637Z,7.45
2019-03-22T07:19:48.641Z,7.50
2019-03-22T07:20:48.629Z,7.60
2019-03-22T07:21:48.607Z,7.63
2019-03-22T07:22:48.587Z,7.63
2019-03-22T07:23:48.575Z,7.57
2019-03-22T07:24:48.571Z,7.66
2019-03-22T07:25:48.570Z,7.60
2019-03-22T07:26:48.557Z,7.73
2019-03-22T07:27:48.534Z,7.76
2019-03-22T07:28:48.522Z,7.80
2019-03-22T07:29:48.510Z,7.79
2019-03-22T07:30:48.521Z,7.82
2019-03-22T07:31:48.493Z,7.88
2019-03-22T07:32:48.486Z,7.83
2019-03-22T07:33:56.120Z,7.83
2019-03-22T07:34:48.517Z,7.93
2019-03-22T07:35:48.443Z,8.06
2019-03-22T07:36:48.477Z,8.06
2019-03-22T07:37:48.481Z,8.05
2019-03-22T07:38:48.510Z,8.06
2019-03-22T07:39:48.403Z,8.16
2019-03-22T07:40:48.401Z,8.18
2019-03-22T07:41:48.379Z,8.23
2019-03-22T07:42:48.380Z,8.10
2019-03-22T07:43:48.396Z,8.27
2019-03-22T07:44:48.345Z,8.28
2019-03-22T07:45:48.333Z,8.38
2019-03-22T07:46:48.324Z,8.48
2019-03-22T07:47:48.329Z,8.45
2019-03-22T07:48:48.319Z,8.44
2019-03-22T07:49:48.288Z,8.67
2019-03-22T07:50:48.277Z,8.79
2019-03-22T07:51:48.267Z,9.00
2019-03-22T07:52:48.255Z,9.13
2019-03-22T07:53:48.255Z,9.41
2019-03-22T07:54:48.268Z,9.48
2019-03-22T07:55:48.223Z,9.73
2019-03-22T07:56:48.210Z,9.91
2019-03-22T07:57:48.207Z,9.98
2019-03-22T07:58:48.204Z,10.16
2019-03-22T07:59:48.182Z,10.12
2019-03-22T08:00:48.202Z,10.16
2019-03-22T08:01:48.159Z,10.37
2019-03-22T08:02:48.145Z,10.49
2019-03-22T08:03:48.134Z,10.48
2019-03-22T08:04:48.123Z,10.59
2019-03-22T08:05:51.428Z,10.81
2019-03-22T08:06:48.152Z,10.94
2019-03-22T08:07:48.089Z,11.07
2019-03-22T08:08:48.082Z,11.11
2019-03-22T08:09:51.062Z,11.33
2019-03-22T08:10:48.055Z,11.45
2019-03-22T08:11:48.098Z,11.55
2019-03-22T08:12:48.063Z,11.62
2019-03-22T08:13:48.028Z,11.68
2019-03-22T08:14:48.028Z,11.77
2019-03-22T08:15:48.013Z,11.86
2019-03-22T08:16:47.989Z,12.02
2019-03-22T08:17:47.992Z,12.02
2019-03-22T08:18:48.006Z,11.90
2019-03-22T08:19:47.955Z,11.86
2019-03-22T08:20:47.948Z,12.10
2019-03-22T08:21:47.964Z,12.04
2019-03-22T08:22:47.932Z,11.95
2019-03-22T08:23:47.926Z,12.07
2019-03-22T08:24:47.917Z,12.25
2019-03-22T08:25:47.889Z,12.35
2019-03-22T08:26:47.877Z,12.18
2019-03-22T08:27:47.873Z,12.12
2019-03-22T08:28:47.871Z,12.07
2019-03-22T08:29:47.878Z,12.13
2019-03-22T08:30:47.881Z,12.32
2019-03-22T08:31:56.797Z,12.55
2019-03-22T08:32:50.358Z,12.75
2019-03-22T08:33:47.870Z,12.78
2019-03-22T08:34:48.003Z,12.75
2019-03-22T08:35:47.792Z,12.85
2019-03-22T08:36:47.830Z,12.91
2019-03-22T08:37:52.910Z,13.04
2019-03-22T08:38:48.750Z,13.13
2019-03-22T08:39:47.733Z,13.15
2019-03-22T08:40:47.737Z,13.18
2019-03-22T08:41:47.716Z,13.18
2019-03-22T08:42:47.737Z,13.33
2019-03-22T08:43:47.693Z,13.31
2019-03-22T08:44:47.716Z,13.39
2019-03-22T08:45:47.698Z,13.47
2019-03-22T08:46:47.665Z,13.57
2019-03-22T08:47:47.646Z,13.70
2019-03-22T08:48:47.671Z,13.78
2019-03-22T08:49:47.819Z,13.72
2019-03-22T08:50:47.608Z,13.33
2019-03-22T08:51:49.679Z,13.37
2019-03-22T08:52:47.592Z,13.52
2019-03-22T08:53:55.037Z,13.67
2019-03-22T08:54:48.612Z,13.81
2019-03-22T08:55:47.556Z,13.89
2019-03-22T08:56:47.541Z,14.08
2019-03-22T08:57:47.573Z,14.18
2019-03-22T08:58:47.563Z,14.25
2019-03-22T08:59:47.514Z,14.23
2019-03-22T09:00:57.383Z,14.15
2019-03-22T09:01:48.484Z,13.93
2019-03-22T09:02:49.745Z,13.74
2019-03-22T09:03:47.479Z,13.62
2019-03-22T09:04:47.459Z,13.96
2019-03-22T09:05:47.449Z,14.12
2019-03-22T09:06:47.454Z,14.18
2019-03-22T09:07:47.421Z,14.32
2019-03-22T09:08:48.019Z,14.32
2019-03-22T09:09:47.440Z,14.47
2019-03-22T09:10:47.390Z,14.50
2019-03-22T09:11:47.415Z,14.62
2019-03-22T09:12:47.397Z,14.65
2019-03-22T09:13:47.440Z,14.59
2019-03-22T09:14:47.348Z,14.81
2019-03-22T09:15:47.343Z,14.84
2019-03-22T09:16:47.318Z,15.02
2019-03-22T09:17:47.361Z,15.00
2019-03-22T09:18:47.351Z,15.03
2019-03-22T09:19:47.325Z,14.99
2019-03-22T09:20:47.281Z,15.02
2019-03-22T09:21:47.296Z,15.03
2019-03-22T09:22:47.279Z,15.14
2019-03-22T09:23:47.264Z,15.28
2019-03-22T09:24:47.263Z,15.10
2019-03-22T09:25:47.223Z,14.96
2019-03-22T09:26:48.142Z,14.99
2019-03-22T09:27:47.213Z,15.02
2019-03-22T09:28:47.237Z,15.10
2019-03-22T09:29:47.470Z,15.07
2019-03-22T09:30:47.220Z,15.18
2019-03-22T09:31:47.173Z,15.37
2019-03-22T09:32:47.154Z,15.33
2019-03-22T09:33:47.176Z,15.33
2019-03-22T09:34:47.151Z,15.39
2019-03-22T09:35:47.156Z,15.43
2019-03-22T09:36:47.169Z,15.61
2019-03-22T09:37:47.127Z,15.49
2019-03-22T09:38:47.095Z,15.57
2019-03-22T09:39:47.085Z,15.62
2019-03-22T09:40:47.076Z,15.61
2019-03-22T09:41:47.043Z,15.67
2019-03-22T09:42:48.030Z,15.80
2019-03-22T09:43:47.078Z,15.83
2019-03-22T09:44:47.039Z,15.92
2019-03-22T09:45:46.999Z,15.86
2019-03-22T09:46:46.998Z,16.02
2019-03-22T09:47:46.975Z,16.01
2019-03-22T09:48:46.998Z,16.08
2019-03-22T09:49:46.958Z,16.10
2019-03-22T09:50:46.958Z,16.15
2019-03-22T09:51:46.932Z,16.21
2019-03-22T09:52:46.956Z,16.23
2019-03-22T09:53:46.911Z,16.36
2019-03-22T09:54:46.938Z,16.33
2019-03-22T09:55:46.888Z,16.26
2019-03-22T09:56:47.629Z,16.36
2019-03-22T09:57:49.371Z,16.42
2019-03-22T09:58:46.886Z,16.51
2019-03-22T09:59:46.901Z,16.66
2019-03-22T10:00:48.611Z,16.57
2019-03-22T10:01:46.841Z,16.65
2019-03-22T10:02:46.811Z,16.43
2019-03-22T10:03:46.888Z,16.49
2019-03-22T10:04:46.842Z,16.68
2019-03-22T10:05:46.786Z,16.86
2019-03-22T10:06:46.820Z,16.93
2019-03-22T10:07:46.805Z,17.08
2019-03-22T10:08:46.799Z,17.24
2019-03-22T10:09:46.766Z,17.29
2019-03-22T10:10:46.785Z,17.33
2019-03-22T10:11:46.709Z,17.45
2019-03-22T10:12:46.728Z,17.52
2019-03-22T10:13:48.347Z,17.63
2019-03-22T10:14:46.709Z,17.76
2019-03-22T10:15:46.682Z,17.72
2019-03-22T10:16:47.714Z,17.65
2019-03-22T10:17:46.646Z,17.79
2019-03-22T10:18:46.714Z,17.79
2019-03-22T10:19:46.642Z,17.86
2019-03-22T10:20:46.676Z,18.08
2019-03-22T10:21:46.602Z,18.07
2019-03-22T10:22:46.601Z,18.08
2019-03-22T10:23:46.680Z,18.05
2019-03-22T10:24:46.589Z,18.01
2019-03-22T10:25:46.573Z,18.10
2019-03-22T10:26:46.553Z,18.23
2019-03-22T10:27:46.546Z,18.23
2019-03-22T10:28:46.522Z,18.25
2019-03-22T10:29:46.542Z,18.25
2019-03-22T10:30:46.564Z,18.41
2019-03-22T10:31:46.502Z,18.44
2019-03-22T10:32:46.480Z,18.44
2019-03-22T10:33:46.499Z,18.55
2019-03-22T10:34:46.492Z,18.62
2019-03-22T10:35:46.456Z,18.70
2019-03-22T10:36:46.515Z,18.68
2019-03-22T10:37:46.429Z,18.63
2019-03-22T10:38:46.427Z,18.56
2019-03-22T10:39:46.432Z,18.55
2019-03-22T10:40:46.428Z,18.58
2019-03-22T10:41:46.395Z,18.47
2019-03-22T10:42:46.431Z,18.47
2019-03-22T10:43:46.430Z,18.37
2019-03-22T10:44:46.349Z,18.56
2019-03-22T10:45:46.386Z,18.77
2019-03-22T10:46:46.322Z,18.83
2019-03-22T10:47:46.407Z,18.71
2019-03-22T10:48:46.396Z,18.74
2019-03-22T10:49:46.296Z,18.77
2019-03-22T10:50:46.280Z,18.78
2019-03-22T10:51:56.035Z,18.84
2019-03-22T10:52:48.370Z,18.77
2019-03-22T10:53:46.317Z,18.90
2019-03-22T10:54:46.275Z,18.88
2019-03-22T10:55:46.233Z,19.09
2019-03-22T10:56:46.217Z,19.02
2019-03-22T10:57:46.200Z,19.18
2019-03-22T10:58:46.203Z,19.29
2019-03-22T10:59:46.179Z,19.31
2019-03-22T11:00:46.188Z,19.27
2019-03-22T11:01:57.543Z,19.37
2019-03-22T11:02:47.144Z,19.34
2019-03-22T11:03:46.190Z,19.44
2019-03-22T11:04:46.162Z,19.54
2019-03-22T11:05:46.111Z,19.69
2019-03-22T11:06:46.106Z,19.56
2019-03-22T11:07:46.133Z,19.59
2019-03-22T11:08:46.084Z,19.82
2019-03-22T11:09:46.081Z,19.86
2019-03-22T11:10:46.092Z,20.11
2019-03-22T11:11:46.069Z,19.94
2019-03-22T11:12:46.034Z,19.82
2019-03-22T11:13:46.079Z,19.82
2019-03-22T11:14:46.024Z,19.71
2019-03-22T11:15:48.770Z,19.55
2019-03-22T11:16:46.004Z,19.67
2019-03-22T11:17:45.980Z,19.59
2019-03-22T11:18:45.970Z,19.73
2019-03-22T11:19:45.979Z,19.54
2019-03-22T11:20:45.963Z,19.63
2019-03-22T11:21:45.981Z,19.82
2019-03-22T11:22:45.925Z,19.81
2019-03-22T11:23:45.913Z,19.85
2019-03-22T11:24:45.904Z,19.89
2019-03-22T11:25:45.893Z,19.85
2019-03-22T11:26:45.921Z,19.79
2019-03-22T11:27:45.870Z,19.88
2019-03-22T11:28:45.867Z,19.86
2019-03-22T11:29:45.847Z,19.91
2019-03-22T11:30:45.838Z,19.88
2019-03-22T11:31:45.850Z,19.94
2019-03-22T11:32:45.835Z,19.82
2019-03-22T11:33:45.807Z,19.86
2019-03-22T11:34:45.795Z,20.06
2019-03-22T11:35:45.784Z,20.09
2019-03-22T11:36:45.772Z,20.16
2019-03-22T11:37:45.773Z,20.10
2019-03-22T11:38:45.795Z,20.19
2019-03-22T11:39:45.740Z,20.22
2019-03-22T11:40:46.948Z,20.19
2019-03-22T11:41:45.717Z,20.13
2019-03-22T11:42:45.747Z,19.99
2019-03-22T11:43:45.695Z,19.95
2019-03-22T11:44:45.714Z,20.16
2019-03-22T11:45:45.682Z,20.14
2019-03-22T11:46:45.678Z,20.37
2019-03-22T11:47:45.652Z,20.39
2019-03-22T11:48:45.650Z,20.31
2019-03-22T11:49:45.632Z,20.18
2019-03-22T11:50:45.651Z,20.26
2019-03-22T11:51:45.608Z,20.28
2019-03-22T11:52:45.626Z,20.22
2019-03-22T11:53:45.599Z,20.31
2019-03-22T11:54:45.575Z,20.22
2019-03-22T11:55:45.567Z,20.31
2019-03-22T11:56:45.589Z,20.21
2019-03-22T11:57:45.560Z,20.25
2019-03-22T11:58:45.532Z,20.36
2019-03-22T11:59:45.520Z,20.40
2019-03-22T12:00:45.526Z,20.51
2019-03-22T12:01:45.536Z,20.50
2019-03-22T12:02:45.512Z,20.59
2019-03-22T12:03:45.501Z,20.66
2019-03-22T12:04:45.464Z,20.63
2019-03-22T12:05:45.478Z,20.43
2019-03-22T12:06:45.442Z,20.25
2019-03-22T12:07:45.437Z,20.03
2019-03-22T12:08:45.444Z,20.28
2019-03-22T12:09:45.411Z,20.34
2019-03-22T12:10:45.418Z,20.39
2019-03-22T12:11:45.403Z,20.55
2019-03-22T12:12:45.378Z,20.34
2019-03-22T12:13:45.379Z,20.04
2019-03-22T12:14:45.405Z,20.13
2019-03-22T12:15:45.345Z,20.25
2019-03-22T12:16:45.337Z,20.21
2019-03-22T12:17:45.335Z,20.36
2019-03-22T12:18:45.315Z,20.18
2019-03-22T12:19:45.313Z,20.18
2019-03-22T12:20:45.328Z,20.18
2019-03-22T12:21:45.278Z,20.16
2019-03-22T12:22:45.271Z,20.14
2019-03-22T12:23:45.280Z,20.37
2019-03-22T12:24:45.246Z,20.39
2019-03-22T12:25:45.236Z,20.55
2019-03-22T12:26:45.269Z,20.44
2019-03-22T12:27:45.217Z,20.31
2019-03-22T12:28:45.222Z,20.40
2019-03-22T12:29:45.193Z,20.48
2019-03-22T12:30:45.205Z,20.40
2019-03-22T12:31:45.169Z,20.43
2019-03-22T12:32:45.201Z,20.26
2019-03-22T12:33:45.148Z,20.43
2019-03-22T12:34:45.162Z,20.26
2019-03-22T12:35:45.139Z,20.34
2019-03-22T12:36:45.117Z,20.14
2019-03-22T12:37:45.104Z,20.28
2019-03-22T12:38:45.120Z,20.29
2019-03-22T12:39:45.083Z,20.41
2019-03-22T12:40:45.092Z,20.50
2019-03-22T12:41:45.059Z,20.50
2019-03-22T12:42:45.051Z,20.39
2019-03-22T12:43:45.066Z,20.48
2019-03-22T12:44:45.068Z,20.40
2019-03-22T12:45:45.032Z,20.18
2019-03-22T12:46:45.006Z,20.13
2019-03-22T12:47:44.995Z,20.24
2019-03-22T12:48:44.985Z,20.26
2019-03-22T12:49:45.001Z,20.47
2019-03-22T12:50:45.021Z,20.32
2019-03-22T12:51:44.967Z,20.43
2019-03-22T12:52:44.940Z,20.18
2019-03-22T12:53:44.929Z,20.28
2019-03-22T12:54:44.932Z,20.24
2019-03-22T12:55:44.907Z,20.26
2019-03-22T12:56:44.931Z,20.22
2019-03-22T12:57:44.898Z,20.40
2019-03-22T12:58:44.890Z,20.37
2019-03-22T12:59:44.882Z,20.47
2019-03-22T13:00:44.900Z,20.67
2019-03-22T13:01:44.841Z,20.48
2019-03-22T13:02:44.853Z,20.60
2019-03-22T13:03:44.822Z,20.65
2019-03-22T13:04:44.808Z,20.43
2019-03-22T13:05:44.802Z,20.41
2019-03-22T13:06:44.807Z,20.52
2019-03-22T13:07:44.775Z,20.74
2019-03-22T13:08:44.796Z,20.88